createdAt,value
2018-05-23T00:00:20.072Z,51.81
2018-05-23T00:01:20.097Z,51.72
2018-05-23T00:02:20.128Z,51.62
2018-05-23T00:03:20.150Z,51.79
2018-05-23T00:04:20.179Z,51.62
2018-05-23T00:05:20.206Z,51.62
2018-05-23T00:06:20.238Z,51.62
2018-05-23T00:07:20.260Z,51.62
2018-05-23T00:08:20.291Z,52.10
2018-05-23T00:09:20.322Z,51.81
2018-05-23T00:10:20.351Z,51.53
2018-05-23T00:11:20.374Z,51.59
2018-05-23T00:12:20.401Z,51.40
2018-05-23T00:13:20.433Z,51.40
2018-05-23T00:14:20.457Z,51.59
2018-05-23T00:15:20.489Z,51.40
2018-05-23T00:16:20.513Z,51.88
2018-05-23T00:17:20.538Z,52.08
2018-05-23T00:18:20.570Z,51.21
2018-05-23T00:19:20.606Z,52.17
2018-05-23T00:20:20.624Z,52.08
2018-05-23T00:21:20.651Z,51.79
2018-05-23T00:22:20.678Z,51.98
2018-05-23T00:23:20.720Z,51.98
2018-05-23T00:24:20.733Z,52.36
2018-05-23T00:25:20.760Z,52.26
2018-05-23T00:26:20.797Z,52.05
2018-05-23T00:27:20.814Z,52.26
2018-05-23T00:28:20.840Z,52.36
2018-05-23T00:29:20.872Z,52.08
2018-05-23T00:30:20.896Z,52.17
2018-05-23T00:31:20.925Z,52.26
2018-05-23T00:32:20.955Z,52.43
2018-05-23T00:33:20.981Z,52.17
2018-05-23T00:34:21.004Z,52.26
2018-05-23T00:35:21.040Z,52.53
2018-05-23T00:36:21.068Z,52.72
2018-05-23T00:37:21.144Z,52.24
2018-05-23T00:38:21.116Z,52.26
2018-05-23T00:39:21.146Z,52.17
2018-05-23T00:40:21.170Z,52.36
2018-05-23T00:41:21.199Z,52.46
2018-05-23T00:42:21.225Z,52.46
2018-05-23T00:43:21.262Z,52.36
2018-05-23T00:44:21.283Z,52.24
2018-05-23T00:45:21.310Z,52.36
2018-05-23T00:46:21.336Z,52.34
2018-05-23T00:47:21.366Z,52.91
2018-05-23T00:48:21.391Z,53.20
2018-05-23T00:49:21.415Z,53.68
2018-05-23T00:50:21.533Z,53.58
2018-05-23T00:51:21.468Z,52.91
2018-05-23T00:52:21.502Z,53.30
2018-05-23T00:53:21.529Z,53.49
2018-05-23T00:54:21.564Z,53.11
2018-05-23T00:55:21.591Z,53.58
2018-05-23T00:56:21.610Z,53.68
2018-05-23T00:57:21.638Z,53.58
2018-05-23T00:58:21.665Z,53.68
2018-05-23T00:59:21.690Z,53.49
2018-05-23T01:00:21.725Z,53.58
2018-05-23T01:01:21.746Z,53.58
2018-05-23T01:02:21.776Z,53.49
2018-05-23T01:03:21.800Z,53.11
2018-05-23T01:04:21.829Z,53.11
2018-05-23T01:05:21.855Z,53.49
2018-05-23T01:06:21.887Z,52.91
2018-05-23T01:07:21.909Z,53.11
2018-05-23T01:08:21.939Z,53.30
2018-05-23T01:09:21.965Z,53.58
2018-05-23T01:10:21.992Z,53.87
2018-05-23T01:11:22.019Z,53.39
2018-05-23T01:12:22.048Z,53.58
2018-05-23T01:13:22.078Z,53.68
2018-05-23T01:14:22.105Z,54.52
2018-05-23T01:15:22.131Z,53.78
2018-05-23T01:16:22.158Z,53.97
2018-05-23T01:17:22.184Z,53.94
2018-05-23T01:18:22.211Z,53.94
2018-05-23T01:19:22.234Z,54.04
2018-05-23T01:20:22.267Z,54.61
2018-05-23T01:21:22.307Z,54.61
2018-05-23T01:22:22.321Z,55.00
2018-05-23T01:23:22.344Z,54.90
2018-05-23T01:24:22.369Z,54.80
2018-05-23T01:25:22.398Z,54.71
2018-05-23T01:26:22.428Z,54.42
2018-05-23T01:27:22.454Z,54.61
2018-05-23T01:28:22.484Z,54.61
2018-05-23T01:29:22.508Z,54.42
2018-05-23T01:30:22.534Z,54.33
2018-05-23T01:31:22.579Z,54.78
2018-05-23T01:32:22.596Z,55.00
2018-05-23T01:33:22.618Z,55.10
2018-05-23T01:34:22.641Z,55.00
2018-05-23T01:35:22.672Z,55.19
2018-05-23T01:36:22.700Z,55.00
2018-05-23T01:37:22.731Z,55.47
2018-05-23T01:38:22.759Z,55.29
2018-05-23T01:39:22.779Z,55.38
2018-05-23T01:40:22.807Z,55.35
2018-05-23T01:41:22.835Z,55.83
2018-05-23T01:42:22.857Z,55.26
2018-05-23T01:43:22.890Z,55.74
2018-05-23T01:44:22.914Z,56.02
2018-05-23T01:45:22.948Z,55.64
2018-05-23T01:46:22.968Z,55.55
2018-05-23T01:47:22.994Z,55.47
2018-05-23T01:48:23.024Z,55.29
2018-05-23T01:49:23.052Z,55.57
2018-05-23T01:50:23.084Z,55.38
2018-05-23T01:51:23.114Z,54.90
2018-05-23T01:52:23.137Z,55.19
2018-05-23T01:53:23.157Z,55.00
2018-05-23T01:54:23.188Z,55.19
2018-05-23T01:55:23.212Z,55.10
2018-05-23T01:56:23.240Z,55.29
2018-05-23T01:57:23.267Z,55.45
2018-05-23T01:58:23.293Z,55.93
2018-05-23T01:59:23.316Z,55.93
2018-05-23T02:00:23.351Z,56.70
2018-05-23T02:01:23.381Z,56.60
2018-05-23T02:02:23.402Z,56.89
2018-05-23T02:03:23.426Z,56.86
2018-05-23T02:04:23.459Z,56.76
2018-05-23T02:05:23.486Z,57.15
2018-05-23T02:06:23.510Z,56.67
2018-05-23T02:07:23.541Z,56.76
2018-05-23T02:08:23.562Z,56.76
2018-05-23T02:09:23.595Z,56.41
2018-05-23T02:10:23.617Z,56.60
2018-05-23T02:11:23.655Z,56.12
2018-05-23T02:12:23.677Z,56.12
2018-05-23T02:13:23.700Z,55.93
2018-05-23T02:14:23.726Z,55.64
2018-05-23T02:15:23.756Z,55.35
2018-05-23T02:16:23.782Z,55.45
2018-05-23T02:17:23.806Z,55.35
2018-05-23T02:18:23.831Z,55.45
2018-05-23T02:19:23.856Z,55.83
2018-05-23T02:20:23.884Z,55.74
2018-05-23T02:21:23.912Z,55.64
2018-05-23T02:22:23.940Z,55.74
2018-05-23T02:23:23.968Z,55.83
2018-05-23T02:24:23.995Z,55.55
2018-05-23T02:25:24.022Z,55.26
2018-05-23T02:26:24.047Z,55.26
2018-05-23T02:27:24.075Z,55.16
2018-05-23T02:28:24.110Z,55.26
2018-05-23T02:29:24.134Z,55.16
2018-05-23T02:30:24.161Z,55.74
2018-05-23T02:31:24.181Z,55.35
2018-05-23T02:32:24.214Z,55.26
2018-05-23T02:33:24.235Z,55.55
2018-05-23T02:34:24.268Z,55.45
2018-05-23T02:35:24.290Z,55.55
2018-05-23T02:36:24.317Z,55.83
2018-05-23T02:37:24.348Z,56.38
2018-05-23T02:38:24.370Z,56.38
2018-05-23T02:39:24.399Z,56.51
2018-05-23T02:40:24.423Z,56.38
2018-05-23T02:41:24.454Z,56.57
2018-05-23T02:42:24.480Z,56.48
2018-05-23T02:43:24.502Z,56.38
2018-05-23T02:44:24.530Z,56.57
2018-05-23T02:45:24.556Z,56.76
2018-05-23T02:46:24.584Z,57.34
2018-05-23T02:47:24.615Z,56.96
2018-05-23T02:48:24.640Z,57.34
2018-05-23T02:49:24.664Z,57.53
2018-05-23T02:50:24.697Z,57.15
2018-05-23T02:51:24.725Z,57.15
2018-05-23T02:52:24.749Z,56.86
2018-05-23T02:53:24.772Z,57.43
2018-05-23T02:54:24.799Z,57.43
2018-05-23T02:55:24.834Z,57.43
2018-05-23T02:56:24.854Z,57.63
2018-05-23T02:57:24.879Z,57.63
2018-05-23T02:58:24.907Z,57.72
2018-05-23T02:59:24.934Z,57.63
2018-05-23T03:00:24.960Z,58.20
2018-05-23T03:01:24.989Z,58.97
2018-05-23T03:02:25.018Z,58.20
2018-05-23T03:03:25.038Z,57.92
2018-05-23T03:04:25.069Z,57.63
2018-05-23T03:05:25.098Z,57.63
2018-05-23T03:06:25.119Z,58.39
2018-05-23T03:07:25.149Z,58.46
2018-05-23T03:08:25.232Z,58.56
2018-05-23T03:09:25.204Z,58.75
2018-05-23T03:10:25.231Z,58.84
2018-05-23T03:11:25.257Z,59.13
2018-05-23T03:12:25.278Z,58.20
2018-05-23T03:13:25.308Z,58.39
2018-05-23T03:14:25.332Z,58.39
2018-05-23T03:15:25.365Z,57.60
2018-05-23T03:16:25.388Z,58.37
2018-05-23T03:17:25.414Z,58.08
2018-05-23T03:18:25.443Z,58.27
2018-05-23T03:19:25.472Z,58.11
2018-05-23T03:20:25.492Z,57.92
2018-05-23T03:21:25.520Z,58.08
2018-05-23T03:22:25.555Z,57.43
2018-05-23T03:23:25.572Z,57.89
2018-05-23T03:24:25.602Z,57.60
2018-05-23T03:25:25.630Z,57.82
2018-05-23T03:26:25.661Z,57.53
2018-05-23T03:27:25.677Z,57.63
2018-05-23T03:28:25.708Z,58.11
2018-05-23T03:29:25.732Z,57.72
2018-05-23T03:30:25.766Z,57.72
2018-05-23T03:31:25.788Z,58.11
2018-05-23T03:32:25.816Z,58.20
2018-05-23T03:33:25.842Z,58.30
2018-05-23T03:34:25.872Z,58.78
2018-05-23T03:35:25.894Z,58.97
2018-05-23T03:36:25.922Z,58.39
2018-05-23T03:37:25.948Z,58.39
2018-05-23T03:38:25.978Z,58.87
2018-05-23T03:39:26.002Z,58.87
2018-05-23T03:40:26.029Z,58.78
2018-05-23T03:41:26.059Z,58.69
2018-05-23T03:42:26.081Z,58.87
2018-05-23T03:43:26.111Z,58.69
2018-05-23T03:44:26.144Z,58.87
2018-05-23T03:45:26.163Z,57.82
2018-05-23T03:46:26.191Z,58.11
2018-05-23T03:47:26.217Z,57.63
2018-05-23T03:48:26.242Z,57.63
2018-05-23T03:49:26.267Z,57.72
2018-05-23T03:50:26.292Z,57.82
2018-05-23T03:51:26.322Z,57.63
2018-05-23T03:52:26.348Z,58.01
2018-05-23T03:53:26.372Z,58.20
2018-05-23T03:54:26.418Z,58.30
2018-05-23T03:55:26.517Z,58.11
2018-05-23T03:56:26.457Z,58.39
2018-05-23T03:57:26.480Z,58.30
2018-05-23T03:58:26.508Z,57.82
2018-05-23T03:59:26.531Z,57.63
2018-05-23T04:00:26.564Z,56.96
2018-05-23T04:01:26.590Z,57.92
2018-05-23T04:02:26.611Z,57.92
2018-05-23T04:03:26.640Z,57.43
2018-05-23T04:04:26.666Z,57.43
2018-05-23T04:05:26.692Z,57.72
2018-05-23T04:06:26.725Z,57.24
2018-05-23T04:07:26.746Z,56.76
2018-05-23T04:08:26.770Z,57.53
2018-05-23T04:09:26.800Z,57.15
2018-05-23T04:10:26.830Z,57.34
2018-05-23T04:11:26.859Z,57.43
2018-05-23T04:12:26.880Z,57.53
2018-05-23T04:13:26.912Z,57.92
2018-05-23T04:14:26.934Z,57.53
2018-05-23T04:15:26.995Z,57.43
2018-05-23T04:16:26.990Z,57.53
2018-05-23T04:17:27.018Z,57.34
2018-05-23T04:18:27.045Z,57.92
2018-05-23T04:19:27.070Z,57.72
2018-05-23T04:20:27.094Z,58.30
2018-05-23T04:21:27.125Z,57.92
2018-05-23T04:22:27.146Z,57.82
2018-05-23T04:23:27.171Z,57.63
2018-05-23T04:24:27.200Z,57.63
2018-05-23T04:25:27.229Z,57.63
2018-05-23T04:26:27.251Z,57.63
2018-05-23T04:27:27.280Z,57.72
2018-05-23T04:28:27.307Z,57.95
2018-05-23T04:29:27.332Z,57.75
2018-05-23T04:30:27.364Z,57.92
2018-05-23T04:31:27.389Z,57.53
2018-05-23T04:32:27.413Z,58.11
2018-05-23T04:33:27.442Z,58.04
2018-05-23T04:34:27.469Z,57.82
2018-05-23T04:35:27.490Z,57.82
2018-05-23T04:36:27.515Z,57.63
2018-05-23T04:37:27.547Z,57.85
2018-05-23T04:38:27.576Z,57.56
2018-05-23T04:39:27.596Z,57.82
2018-05-23T04:40:27.625Z,57.75
2018-05-23T04:41:27.656Z,57.85
2018-05-23T04:42:27.696Z,57.85
2018-05-23T04:43:27.706Z,57.95
2018-05-23T04:44:27.739Z,57.18
2018-05-23T04:45:27.760Z,57.65
2018-05-23T04:46:27.788Z,57.46
2018-05-23T04:47:27.820Z,57.28
2018-05-23T04:48:27.842Z,56.98
2018-05-23T04:49:27.873Z,57.28
2018-05-23T04:50:27.899Z,57.08
2018-05-23T04:51:27.922Z,57.18
2018-05-23T04:52:27.946Z,56.79
2018-05-23T04:53:27.973Z,56.98
2018-05-23T04:54:27.999Z,56.79
2018-05-23T04:55:28.026Z,56.79
2018-05-23T04:56:28.054Z,56.89
2018-05-23T04:57:28.084Z,57.28
2018-05-23T04:58:28.105Z,57.18
2018-05-23T04:59:28.130Z,57.37
2018-05-23T05:00:28.162Z,57.08
2018-05-23T05:01:28.183Z,56.89
2018-05-23T05:02:28.217Z,56.98
2018-05-23T05:03:28.239Z,56.98
2018-05-23T05:04:28.265Z,57.37
2018-05-23T05:05:28.294Z,57.28
2018-05-23T05:06:28.319Z,57.08
2018-05-23T05:07:28.346Z,56.70
2018-05-23T05:08:28.374Z,57.18
2018-05-23T05:09:28.403Z,57.08
2018-05-23T05:10:28.433Z,57.28
2018-05-23T05:11:28.457Z,57.37
2018-05-23T05:12:28.478Z,57.08
2018-05-23T05:13:28.512Z,57.18
2018-05-23T05:14:28.535Z,57.28
2018-05-23T05:15:28.562Z,57.18
2018-05-23T05:16:28.588Z,57.18
2018-05-23T05:17:28.617Z,57.37
2018-05-23T05:18:28.650Z,57.18
2018-05-23T05:19:28.665Z,57.37
2018-05-23T05:20:28.708Z,57.18
2018-05-23T05:21:28.724Z,57.56
2018-05-23T05:22:28.752Z,57.56
2018-05-23T05:23:28.774Z,57.01
2018-05-23T05:24:28.819Z,57.40
2018-05-23T05:25:28.829Z,56.92
2018-05-23T05:26:28.859Z,56.53
2018-05-23T05:27:28.894Z,56.44
2018-05-23T05:28:28.910Z,56.82
2018-05-23T05:29:28.938Z,56.44
2018-05-23T05:30:28.970Z,55.96
2018-05-23T05:31:28.993Z,56.44
2018-05-23T05:32:29.016Z,56.73
2018-05-23T05:33:29.043Z,56.63
2018-05-23T05:34:29.068Z,56.34
2018-05-23T05:35:29.097Z,55.77
2018-05-23T05:36:29.131Z,56.05
2018-05-23T05:37:29.158Z,55.96
2018-05-23T05:38:29.178Z,55.57
2018-05-23T05:39:29.202Z,56.27
2018-05-23T05:40:29.240Z,56.44
2018-05-23T05:41:29.257Z,55.69
2018-05-23T05:42:29.291Z,55.77
2018-05-23T05:43:29.375Z,55.96
2018-05-23T05:44:29.336Z,55.99
2018-05-23T05:45:29.374Z,55.51
2018-05-23T05:46:29.395Z,55.51
2018-05-23T05:47:29.418Z,55.12
2018-05-23T05:48:29.452Z,55.12
2018-05-23T05:49:29.508Z,54.64
2018-05-23T05:50:29.501Z,54.06
2018-05-23T05:51:29.526Z,54.80
2018-05-23T05:52:29.557Z,54.83
2018-05-23T05:53:29.583Z,55.12
2018-05-23T05:54:29.606Z,54.74
2018-05-23T05:55:29.641Z,55.12
2018-05-23T05:56:29.667Z,55.02
2018-05-23T05:57:29.691Z,55.32
2018-05-23T05:58:29.721Z,55.02
2018-05-23T05:59:29.750Z,54.55
2018-05-23T06:00:29.779Z,53.90
2018-05-23T06:01:29.802Z,53.78
2018-05-23T06:02:29.828Z,53.49
2018-05-23T06:03:29.854Z,52.55
2018-05-23T06:04:29.885Z,53.01
2018-05-23T06:05:29.916Z,53.30
2018-05-23T06:06:29.940Z,53.42
2018-05-23T06:07:29.968Z,53.52
2018-05-23T06:08:29.994Z,53.61
2018-05-23T06:09:30.100Z,53.03
2018-05-23T06:10:30.043Z,52.55
2018-05-23T06:11:30.079Z,52.46
2018-05-23T06:12:30.096Z,52.36
2018-05-23T06:13:30.141Z,52.55
2018-05-23T06:14:30.151Z,52.17
2018-05-23T06:15:30.178Z,52.08
2018-05-23T06:16:30.205Z,52.08
2018-05-23T06:17:30.235Z,52.65
2018-05-23T06:18:30.267Z,52.55
2018-05-23T06:19:30.286Z,52.68
2018-05-23T06:20:30.320Z,52.20
2018-05-23T06:21:30.341Z,52.20
2018-05-23T06:22:30.375Z,51.81
2018-05-23T06:23:30.397Z,52.29
2018-05-23T06:24:30.428Z,52.29
2018-05-23T06:25:30.459Z,52.58
2018-05-23T06:26:30.485Z,51.91
2018-05-23T06:27:30.506Z,51.62
2018-05-23T06:28:30.538Z,52.29
2018-05-23T06:29:30.563Z,50.85
2018-05-23T06:30:30.734Z,51.04
2018-05-23T06:31:30.615Z,51.43
2018-05-23T06:32:30.645Z,51.33
2018-05-23T06:33:30.675Z,51.62
2018-05-23T06:34:30.700Z,51.33
2018-05-23T06:35:30.726Z,51.81
2018-05-23T06:36:30.758Z,52.10
2018-05-23T06:37:30.783Z,51.53
2018-05-23T06:38:30.810Z,51.53
2018-05-23T06:39:30.837Z,51.62
2018-05-23T06:40:30.861Z,51.62
2018-05-23T06:41:30.895Z,51.62
2018-05-23T06:42:30.921Z,52.20
2018-05-23T06:43:30.965Z,51.72
2018-05-23T06:44:30.974Z,51.45
2018-05-23T06:45:31.011Z,50.97
2018-05-23T06:46:31.036Z,51.35
2018-05-23T06:47:31.059Z,51.35
2018-05-23T06:48:31.089Z,51.07
2018-05-23T06:49:31.114Z,50.97
2018-05-23T06:50:31.145Z,51.07
2018-05-23T06:51:31.166Z,51.17
2018-05-23T06:52:31.197Z,51.17
2018-05-23T06:53:31.223Z,51.26
2018-05-23T06:54:31.253Z,50.49
2018-05-23T06:55:31.276Z,50.10
2018-05-23T06:56:31.308Z,49.33
2018-05-23T06:57:31.335Z,49.36
2018-05-23T06:58:31.360Z,50.32
2018-05-23T06:59:31.392Z,49.65
2018-05-23T07:00:31.417Z,49.46
2018-05-23T07:01:31.445Z,49.65
2018-05-23T07:02:31.470Z,49.55
2018-05-23T07:03:31.504Z,50.51
2018-05-23T07:04:31.525Z,49.74
2018-05-23T07:05:31.558Z,49.36
2018-05-23T07:06:31.581Z,49.27
2018-05-23T07:07:31.613Z,49.36
2018-05-23T07:08:31.635Z,48.97
2018-05-23T07:09:31.667Z,47.63
2018-05-23T07:10:31.694Z,48.11
2018-05-23T07:11:31.722Z,48.21
2018-05-23T07:12:31.833Z,47.53
2018-05-23T07:13:31.787Z,47.92
2018-05-23T07:14:31.810Z,47.15
2018-05-23T07:15:31.830Z,47.94
2018-05-23T07:16:31.865Z,47.53
2018-05-23T07:17:31.893Z,46.95
2018-05-23T07:18:31.923Z,46.40
2018-05-23T07:19:31.971Z,46.59
2018-05-23T07:20:31.974Z,46.59
2018-05-23T07:21:32.002Z,47.27
2018-05-23T07:22:32.030Z,47.75
2018-05-23T07:23:32.059Z,47.17
2018-05-23T07:24:32.079Z,46.78
2018-05-23T07:25:32.110Z,47.36
2018-05-23T07:26:32.138Z,47.17
2018-05-23T07:27:32.165Z,46.88
2018-05-23T07:28:32.200Z,47.19
2018-05-23T07:29:32.217Z,46.59
2018-05-23T07:30:32.253Z,46.11
2018-05-23T07:31:32.277Z,45.75
2018-05-23T07:32:32.304Z,45.07
2018-05-23T07:33:32.337Z,45.94
2018-05-23T07:34:32.358Z,45.15
2018-05-23T07:35:32.390Z,44.59
2018-05-23T07:36:32.419Z,44.49
2018-05-23T07:37:32.444Z,44.57
2018-05-23T07:38:32.473Z,43.73
2018-05-23T07:39:32.502Z,43.82
2018-05-23T07:40:32.531Z,43.73
2018-05-23T07:41:32.560Z,43.73
2018-05-23T07:42:32.588Z,43.71
2018-05-23T07:43:32.613Z,43.99
2018-05-23T07:44:32.645Z,43.92
2018-05-23T07:45:32.668Z,44.38
2018-05-23T07:46:32.698Z,44.09
2018-05-23T07:47:32.732Z,44.38
2018-05-23T07:48:32.753Z,44.76
2018-05-23T07:49:32.785Z,44.40
2018-05-23T07:50:32.807Z,44.48
2018-05-23T07:51:32.839Z,44.40
2018-05-23T07:52:32.865Z,44.79
2018-05-23T07:53:32.892Z,44.40
2018-05-23T07:54:32.922Z,44.31
2018-05-23T07:55:32.958Z,43.54
2018-05-23T07:56:33.059Z,43.54
2018-05-23T07:57:33.001Z,44.49
2018-05-23T07:58:33.031Z,43.63
2018-05-23T07:59:33.057Z,43.73
2018-05-23T08:00:33.089Z,42.96
2018-05-23T08:01:33.116Z,43.82
2018-05-23T08:02:33.144Z,44.11
2018-05-23T08:03:33.172Z,43.63
2018-05-23T08:04:33.197Z,43.73
2018-05-23T08:05:33.231Z,44.02
2018-05-23T08:06:33.261Z,43.82
2018-05-23T08:07:33.281Z,43.63
2018-05-23T08:08:33.315Z,44.02
2018-05-23T08:09:33.339Z,43.82
2018-05-23T08:10:33.376Z,43.54
2018-05-23T08:11:33.402Z,43.82
2018-05-23T08:12:33.421Z,43.05
2018-05-23T08:13:33.454Z,43.34
2018-05-23T08:14:33.481Z,43.63
2018-05-23T08:15:33.509Z,43.17
2018-05-23T08:16:33.542Z,43.65
2018-05-23T08:17:33.562Z,43.94
2018-05-23T08:18:33.591Z,43.46
2018-05-23T08:19:33.614Z,43.27
2018-05-23T08:20:33.646Z,43.75
2018-05-23T08:21:33.691Z,42.97
2018-05-23T08:22:33.700Z,41.72
2018-05-23T08:23:33.730Z,42.49
2018-05-23T08:24:33.757Z,43.17
2018-05-23T08:25:33.790Z,42.88
2018-05-23T08:26:33.816Z,42.97
2018-05-23T08:27:33.840Z,42.79
2018-05-23T08:28:33.870Z,41.63
2018-05-23T08:29:33.896Z,42.59
2018-05-23T08:30:33.926Z,43.17
2018-05-23T08:31:33.950Z,42.97
2018-05-23T08:32:33.986Z,42.69
2018-05-23T08:33:34.014Z,42.97
2018-05-23T08:34:34.048Z,43.46
2018-05-23T08:35:34.071Z,42.59
2018-05-23T08:36:34.090Z,42.79
2018-05-23T08:37:34.120Z,42.79
2018-05-23T08:38:34.149Z,42.88
2018-05-23T08:39:34.176Z,42.79
2018-05-23T08:40:34.208Z,42.30
2018-05-23T08:41:34.239Z,42.79
2018-05-23T08:42:34.267Z,42.30
2018-05-23T08:43:34.296Z,42.02
2018-05-23T08:44:34.317Z,42.11
2018-05-23T08:45:34.351Z,41.53
2018-05-23T08:46:34.377Z,41.65
2018-05-23T08:47:34.400Z,40.49
2018-05-23T08:48:34.440Z,40.97
2018-05-23T08:49:34.455Z,41.46
2018-05-23T08:50:34.485Z,41.17
2018-05-23T08:51:34.515Z,40.69
2018-05-23T08:52:34.540Z,40.59
2018-05-23T08:53:34.569Z,40.20
2018-05-23T08:54:34.604Z,40.78
2018-05-23T08:55:34.627Z,40.88
2018-05-23T08:56:34.658Z,41.36
2018-05-23T08:57:34.684Z,40.97
2018-05-23T08:58:34.717Z,40.88
2018-05-23T08:59:34.739Z,40.88
2018-05-23T09:00:34.772Z,40.69
2018-05-23T09:01:34.807Z,40.78
2018-05-23T09:02:34.832Z,40.20
2018-05-23T09:03:34.852Z,39.91
2018-05-23T09:04:34.884Z,40.11
2018-05-23T09:05:34.910Z,40.20
2018-05-23T09:06:34.945Z,38.76
2018-05-23T09:07:34.964Z,38.85
2018-05-23T09:08:34.994Z,38.56
2018-05-23T09:09:35.019Z,38.46
2018-05-23T09:10:35.050Z,37.70
2018-05-23T09:11:35.081Z,37.89
2018-05-23T09:12:35.228Z,37.98
2018-05-23T09:13:35.136Z,37.79
2018-05-23T09:14:35.158Z,37.50
2018-05-23T09:15:35.189Z,37.60
2018-05-23T09:16:35.219Z,37.81
2018-05-23T09:17:35.243Z,38.29
2018-05-23T09:18:35.276Z,38.49
2018-05-23T09:19:35.309Z,37.91
2018-05-23T09:20:35.331Z,37.81
2018-05-23T09:21:35.362Z,37.13
2018-05-23T09:22:35.395Z,37.52
2018-05-23T09:23:35.413Z,37.52
2018-05-23T09:24:35.443Z,36.75
2018-05-23T09:25:35.475Z,35.98
2018-05-23T09:26:35.499Z,36.46
2018-05-23T09:27:35.524Z,36.57
2018-05-23T09:28:35.558Z,35.59
2018-05-23T09:29:35.582Z,35.80
2018-05-23T09:30:35.614Z,35.59
2018-05-23T09:31:35.641Z,35.80
2018-05-23T09:32:35.668Z,35.61
2018-05-23T09:33:35.701Z,35.90
2018-05-23T09:34:35.721Z,35.42
2018-05-23T09:35:35.756Z,35.42
2018-05-23T09:36:35.776Z,35.32
2018-05-23T09:37:35.809Z,35.71
2018-05-23T09:38:35.838Z,36.40
2018-05-23T09:39:35.868Z,35.71
2018-05-23T09:40:35.896Z,34.38
2018-05-23T09:41:35.922Z,33.31
2018-05-23T09:42:35.956Z,33.29
2018-05-23T09:43:35.980Z,33.00
2018-05-23T09:44:36.008Z,32.82
2018-05-23T09:45:36.036Z,32.64
2018-05-23T09:46:36.071Z,33.50
2018-05-23T09:47:36.092Z,33.31
2018-05-23T09:48:36.122Z,33.02
2018-05-23T09:49:36.145Z,32.64
2018-05-23T09:50:36.176Z,32.54
2018-05-23T09:51:36.206Z,33.40
2018-05-23T09:52:36.239Z,33.12
2018-05-23T09:53:36.262Z,33.33
2018-05-23T09:54:36.291Z,33.40
2018-05-23T09:55:36.316Z,33.12
2018-05-23T09:56:36.348Z,33.12
2018-05-23T09:57:36.379Z,32.56
2018-05-23T09:58:36.406Z,32.36
2018-05-23T09:59:36.431Z,31.40
2018-05-23T10:00:36.461Z,31.01
2018-05-23T10:01:36.559Z,30.82
2018-05-23T10:02:36.523Z,30.62
2018-05-23T10:03:36.562Z,30.72
2018-05-23T10:04:36.580Z,31.59
2018-05-23T10:05:36.602Z,31.40
2018-05-23T10:06:36.635Z,29.94
2018-05-23T10:07:36.660Z,30.33
2018-05-23T10:08:36.687Z,30.83
2018-05-23T10:09:36.722Z,31.89
2018-05-23T10:10:36.752Z,30.05
2018-05-23T10:11:36.775Z,30.15
2018-05-23T10:12:36.804Z,29.88
2018-05-23T10:13:36.837Z,29.69
2018-05-23T10:14:36.863Z,29.20
2018-05-23T10:15:36.892Z,28.52
2018-05-23T10:16:36.918Z,28.62
2018-05-23T10:17:36.945Z,29.02
2018-05-23T10:18:36.976Z,29.01
2018-05-23T10:19:37.006Z,29.02
2018-05-23T10:20:37.030Z,29.12
2018-05-23T10:21:37.058Z,29.70
2018-05-23T10:22:37.085Z,29.90
2018-05-23T10:23:37.115Z,29.99
2018-05-23T10:24:37.146Z,31.05
2018-05-23T10:25:37.183Z,29.90
2018-05-23T10:26:37.202Z,29.50
2018-05-23T10:27:37.239Z,29.90
2018-05-23T10:28:37.264Z,29.41
2018-05-23T10:29:37.292Z,29.13
2018-05-23T10:30:37.321Z,28.34
2018-05-23T10:31:37.346Z,29.33
2018-05-23T10:32:37.382Z,29.03
2018-05-23T10:33:37.411Z,29.23
2018-05-23T10:34:37.436Z,29.33
2018-05-23T10:35:37.460Z,29.52
2018-05-23T10:36:37.488Z,29.15
2018-05-23T10:37:37.516Z,29.15
2018-05-23T10:38:37.549Z,28.66
2018-05-23T10:39:37.579Z,27.50
2018-05-23T10:40:37.610Z,27.50
2018-05-23T10:41:37.629Z,28.18
2018-05-23T10:42:37.663Z,28.56
2018-05-23T10:43:37.697Z,28.56
2018-05-23T10:44:37.721Z,27.89
2018-05-23T10:45:37.753Z,28.76
2018-05-23T10:46:37.778Z,27.89
2018-05-23T10:47:37.802Z,28.19
2018-05-23T10:48:37.838Z,28.68
2018-05-23T10:49:37.865Z,28.39
2018-05-23T10:50:37.911Z,27.51
2018-05-23T10:51:37.952Z,26.93
2018-05-23T10:52:37.950Z,26.75
2018-05-23T10:53:37.986Z,26.56
2018-05-23T10:54:38.008Z,26.37
2018-05-23T10:55:38.039Z,25.78
2018-05-23T10:56:38.077Z,26.09
2018-05-23T10:57:38.102Z,26.28
2018-05-23T10:58:38.128Z,25.79
2018-05-23T10:59:38.160Z,25.60
2018-05-23T11:00:38.194Z,25.70
2018-05-23T11:01:38.222Z,24.66
2018-05-23T11:02:38.253Z,24.07
2018-05-23T11:03:38.279Z,24.28
2018-05-23T11:04:38.313Z,23.32
2018-05-23T11:05:38.358Z,21.98
2018-05-23T11:06:38.377Z,21.60
2018-05-23T11:07:38.410Z,21.04
2018-05-23T11:08:38.441Z,20.28
2018-05-23T11:09:38.471Z,19.82
2018-05-23T11:10:38.509Z,17.79
2018-05-23T11:11:38.534Z,17.79
2018-05-23T11:12:38.565Z,17.42
2018-05-23T11:13:38.603Z,17.13
2018-05-23T11:14:38.634Z,16.35
2018-05-23T11:15:38.670Z,16.27
2018-05-23T11:16:38.700Z,15.39
2018-05-23T11:17:38.738Z,15.50
2018-05-23T11:18:38.763Z,15.32
2018-05-23T11:19:38.802Z,13.64
2018-05-23T11:20:38.834Z,13.36
2018-05-23T11:21:38.887Z,13.76
2018-05-23T11:22:38.908Z,13.37
2018-05-23T11:23:38.940Z,12.49
2018-05-23T11:24:38.975Z,12.99
2018-05-23T11:25:39.006Z,12.49
2018-05-23T11:26:39.043Z,12.69
2018-05-23T11:27:39.083Z,12.31
2018-05-23T11:28:39.113Z,12.12
2018-05-23T11:29:39.268Z,13.48
2018-05-23T11:30:39.188Z,12.60
2018-05-23T11:31:39.226Z,12.70
2018-05-23T11:32:39.261Z,12.70
2018-05-23T11:33:39.298Z,12.30
2018-05-23T11:34:39.348Z,12.60
2018-05-23T11:35:39.368Z,12.02
2018-05-23T11:36:39.410Z,11.92
2018-05-23T11:37:39.452Z,11.33
2018-05-23T11:38:39.489Z,11.54
2018-05-23T11:39:39.525Z,11.62
2018-05-23T11:40:39.552Z,11.52
2018-05-23T11:41:39.598Z,11.72
2018-05-23T11:42:39.641Z,11.13
2018-05-23T11:43:39.674Z,11.92
2018-05-23T11:44:39.701Z,11.44
2018-05-23T11:45:39.746Z,11.44
2018-05-23T11:46:39.835Z,11.15
2018-05-23T11:47:39.820Z,11.16
2018-05-23T11:48:39.863Z,11.25
2018-05-23T11:49:39.892Z,10.95
2018-05-23T11:50:39.929Z,11.25
2018-05-23T11:51:39.976Z,11.35
2018-05-23T11:52:40.006Z,10.86
2018-05-23T11:53:40.046Z,10.96
2018-05-23T11:54:40.165Z,10.66
2018-05-23T11:55:40.122Z,10.85
2018-05-23T11:56:40.159Z,11.35
2018-05-23T11:57:40.197Z,11.35
2018-05-23T11:58:40.240Z,10.46
2018-05-23T11:59:40.273Z,11.35
2018-05-23T12:00:40.318Z,11.15
2018-05-23T12:01:40.353Z,10.85
2018-05-23T12:02:40.390Z,11.33
2018-05-23T12:03:40.432Z,10.95
2018-05-23T12:04:40.469Z,10.85
2018-05-23T12:05:40.506Z,11.44
2018-05-23T12:06:40.554Z,10.76
2018-05-23T12:07:40.582Z,10.18
2018-05-23T12:08:40.624Z,9.69
2018-05-23T12:09:40.661Z,9.50
2018-05-23T12:10:40.838Z,9.30
2018-05-23T12:11:40.745Z,9.40
2018-05-23T12:12:40.777Z,9.50
2018-05-23T12:13:40.819Z,9.11
2018-05-23T12:14:40.861Z,8.81
2018-05-23T12:15:40.900Z,9.20
2018-05-23T12:16:40.935Z,8.92
2018-05-23T12:17:40.981Z,9.11
2018-05-23T12:18:41.020Z,8.92
2018-05-23T12:19:41.156Z,8.43
2018-05-23T12:20:41.099Z,8.03
2018-05-23T12:21:41.137Z,8.03
2018-05-23T12:22:41.174Z,8.62
2018-05-23T12:23:41.216Z,8.22
2018-05-23T12:24:41.250Z,8.22
2018-05-23T12:25:41.296Z,9.20
2018-05-23T12:26:41.333Z,9.20
2018-05-23T12:27:41.370Z,8.71
2018-05-23T12:28:41.420Z,9.10
2018-05-23T12:29:41.457Z,8.61
2018-05-23T12:30:41.491Z,8.60
2018-05-23T12:31:41.529Z,9.69
2018-05-23T12:32:41.573Z,9.10
2018-05-23T12:33:41.613Z,8.42
2018-05-23T12:34:41.656Z,8.22
2018-05-23T12:35:41.701Z,8.52
2018-05-23T12:36:41.748Z,7.73
2018-05-23T12:37:41.775Z,7.43
2018-05-23T12:38:41.817Z,7.24
2018-05-23T12:39:41.857Z,7.44
2018-05-23T12:40:41.903Z,8.22
2018-05-23T12:41:41.950Z,8.91
2018-05-23T12:42:41.983Z,8.33
2018-05-23T12:43:42.024Z,7.84
2018-05-23T12:44:42.067Z,6.95
2018-05-23T12:45:42.101Z,7.35
2018-05-23T12:46:42.149Z,7.54
2018-05-23T12:47:42.206Z,8.03
2018-05-23T12:48:42.229Z,7.55
2018-05-23T12:49:42.267Z,7.35
2018-05-23T12:50:42.309Z,7.25
2018-05-23T12:51:42.360Z,7.06
2018-05-23T12:52:42.395Z,6.56
2018-05-23T12:53:42.434Z,6.36
2018-05-23T12:54:42.475Z,6.56